createdAt,value
2022-08-25T00:00:21.148Z,22.87
2022-08-25T00:02:55.660Z,22.81
2022-08-25T00:05:32.289Z,22.74
2022-08-25T00:08:06.168Z,22.69
2022-08-25T00:10:37.200Z,22.63
2022-08-25T00:13:06.780Z,22.56
2022-08-25T00:15:36.068Z,22.50
2022-08-25T00:18:05.363Z,22.45
2022-08-25T00:20:43.312Z,22.40
2022-08-25T00:23:19.488Z,22.40
2022-08-25T00:25:47.897Z,22.39
2022-08-25T00:28:16.787Z,22.37
2022-08-25T00:30:45.984Z,22.36
2022-08-25T00:33:14.680Z,22.33
2022-08-25T00:35:44.029Z,22.31
2022-08-25T00:38:13.124Z,22.29
2022-08-25T00:40:44.474Z,22.26
2022-08-25T00:43:13.958Z,22.23
2022-08-25T00:45:42.311Z,22.19
2022-08-25T00:48:10.934Z,22.15
2022-08-25T00:50:39.379Z,22.11
2022-08-25T00:53:09.797Z,22.08
2022-08-25T00:55:40.973Z,22.02
2022-08-25T00:58:18.249Z,21.99
2022-08-25T01:00:50.893Z,21.95
2022-08-25T01:03:21.428Z,21.92
2022-08-25T01:05:54.884Z,21.87
2022-08-25T01:08:28.198Z,21.84
2022-08-25T01:11:00.448Z,21.82
2022-08-25T01:13:37.706Z,21.79
2022-08-25T01:16:06.561Z,21.79
2022-08-25T01:18:48.497Z,21.76
2022-08-25T01:21:22.568Z,21.76
2022-08-25T01:23:52.579Z,21.76
2022-08-25T01:26:30.158Z,21.74
2022-08-25T01:29:20.429Z,21.71
2022-08-25T01:31:50.160Z,21.67
2022-08-25T01:34:21.363Z,21.65
2022-08-25T01:36:51.312Z,21.61
2022-08-25T01:39:20.068Z,21.58
2022-08-25T01:42:10.153Z,21.53
2022-08-25T01:44:43.467Z,21.50
2022-08-25T01:47:13.338Z,21.46
2022-08-25T01:49:41.966Z,21.43
2022-08-25T01:52:20.361Z,21.39
2022-08-25T01:54:50.250Z,21.36
2022-08-25T01:57:18.773Z,21.32
2022-08-25T01:59:48.049Z,21.28
2022-08-25T02:02:18.310Z,21.24
2022-08-25T02:04:48.687Z,21.22
2022-08-25T02:07:21.353Z,21.16
2022-08-25T02:09:49.794Z,21.13
2022-08-25T02:12:18.252Z,21.09
2022-08-25T02:14:48.746Z,21.06
2022-08-25T02:17:17.500Z,21.04
2022-08-25T02:19:45.844Z,21.00
2022-08-25T02:22:14.233Z,20.98
2022-08-25T02:24:44.072Z,20.97
2022-08-25T02:27:12.496Z,20.95
2022-08-25T02:29:41.044Z,20.93
2022-08-25T02:32:10.232Z,20.93
2022-08-25T02:34:41.104Z,20.91
2022-08-25T02:37:09.761Z,20.89
2022-08-25T02:39:38.180Z,20.86
2022-08-25T02:42:08.375Z,20.85
2022-08-25T02:44:36.762Z,20.82
2022-08-25T02:47:06.025Z,20.83
2022-08-25T02:49:35.235Z,20.81
2022-08-25T02:52:05.290Z,20.80
2022-08-25T02:54:33.741Z,20.78
2022-08-25T02:57:02.556Z,20.76
2022-08-25T02:59:32.333Z,20.72
2022-08-25T03:02:00.684Z,20.69
2022-08-25T03:04:29.485Z,20.67
2022-08-25T03:06:58.128Z,20.65
2022-08-25T03:09:27.879Z,20.62
2022-08-25T03:11:56.221Z,20.60
2022-08-25T03:14:24.955Z,20.56
2022-08-25T03:16:54.772Z,20.54
2022-08-25T03:19:24.264Z,20.51
2022-08-25T03:21:56.181Z,20.50
2022-08-25T03:24:25.081Z,20.45
2022-08-25T03:26:55.878Z,20.43
2022-08-25T03:29:25.844Z,20.39
2022-08-25T03:31:58.166Z,20.36
2022-08-25T03:34:29.016Z,20.33
2022-08-25T03:36:58.832Z,20.28
2022-08-25T03:39:28.976Z,20.27
2022-08-25T03:41:57.429Z,20.25
2022-08-25T03:44:25.843Z,20.23
2022-08-25T03:46:55.668Z,20.21
2022-08-25T03:49:25.677Z,20.20
2022-08-25T03:51:55.880Z,20.18
2022-08-25T03:54:27.020Z,20.16
2022-08-25T03:56:56.080Z,20.13
2022-08-25T03:59:24.453Z,20.12
2022-08-25T04:01:55.412Z,20.11
2022-08-25T04:04:25.876Z,20.09
2022-08-25T04:06:54.317Z,20.07
2022-08-25T04:09:22.704Z,20.04
2022-08-25T04:11:51.985Z,20.01
2022-08-25T04:14:23.456Z,19.98
2022-08-25T04:16:52.874Z,19.94
2022-08-25T04:19:22.234Z,19.92
2022-08-25T04:21:56.591Z,19.89
2022-08-25T04:24:25.453Z,19.87
2022-08-25T04:26:54.401Z,19.85
2022-08-25T04:29:25.408Z,19.85
2022-08-25T04:31:55.817Z,19.83
2022-08-25T04:34:31.117Z,19.82
2022-08-25T04:37:03.414Z,19.80
2022-08-25T04:39:32.341Z,19.81
2022-08-25T04:42:01.488Z,19.80
2022-08-25T04:44:31.862Z,19.77
2022-08-25T04:47:01.083Z,19.76
2022-08-25T04:49:29.812Z,19.76
2022-08-25T04:51:58.219Z,19.74
2022-08-25T04:54:28.253Z,19.73
2022-08-25T04:56:58.628Z,19.74
2022-08-25T04:59:30.142Z,19.75
2022-08-25T05:02:02.452Z,19.75
2022-08-25T05:04:32.753Z,19.78
2022-08-25T05:07:02.583Z,19.79
2022-08-25T05:09:33.073Z,19.80
2022-08-25T05:12:02.934Z,19.81
2022-08-25T05:14:32.004Z,19.83
2022-08-25T05:17:01.074Z,19.84
2022-08-25T05:19:29.676Z,19.86
2022-08-25T05:21:58.311Z,19.87
2022-08-25T05:24:27.939Z,19.88
2022-08-25T05:26:58.046Z,19.91
2022-08-25T05:29:27.358Z,19.91
2022-08-25T05:31:55.945Z,19.93
2022-08-25T05:34:25.314Z,19.95
2022-08-25T05:36:54.547Z,19.97
2022-08-25T05:39:22.996Z,20.01
2022-08-25T05:41:53.021Z,20.05
2022-08-25T05:44:22.807Z,20.06
2022-08-25T05:46:51.516Z,20.09
2022-08-25T05:49:20.333Z,20.12
2022-08-25T05:51:48.829Z,20.16
2022-08-25T05:54:17.516Z,20.20
2022-08-25T05:56:46.488Z,20.25
2022-08-25T05:59:15.008Z,20.29
2022-08-25T06:02:02.680Z,20.34
2022-08-25T06:04:31.245Z,20.38
2022-08-25T06:06:59.591Z,20.43
2022-08-25T06:09:28.033Z,20.49
2022-08-25T06:11:56.805Z,20.55
2022-08-25T06:14:26.108Z,20.61
2022-08-25T06:16:56.912Z,20.68
2022-08-25T06:19:25.305Z,20.74
2022-08-25T06:21:56.492Z,20.82
2022-08-25T06:24:26.000Z,20.87
2022-08-25T06:26:56.063Z,20.94
2022-08-25T06:29:24.997Z,21.01
2022-08-25T06:31:55.141Z,21.09
2022-08-25T06:34:24.140Z,21.16
2022-08-25T06:36:53.840Z,21.23
2022-08-25T06:39:24.240Z,21.32
2022-08-25T06:41:54.099Z,21.40
2022-08-25T06:44:23.829Z,21.49
2022-08-25T06:46:52.422Z,21.54
2022-08-25T06:49:22.719Z,21.62
2022-08-25T06:51:51.291Z,21.72
2022-08-25T06:54:19.662Z,21.81
2022-08-25T06:56:49.673Z,21.94
2022-08-25T06:59:18.805Z,22.06
2022-08-25T07:01:49.701Z,22.21
2022-08-25T07:04:18.762Z,22.43
2022-08-25T07:06:49.052Z,22.82
2022-08-25T07:09:17.976Z,23.45
2022-08-25T07:11:47.063Z,24.19
2022-08-25T07:14:18.673Z,24.94
2022-08-25T07:16:50.306Z,25.60
2022-08-25T07:19:20.939Z,26.25
2022-08-25T07:21:54.070Z,26.84
2022-08-25T07:24:23.898Z,27.36
2022-08-25T07:26:53.281Z,27.74
2022-08-25T07:29:32.278Z,28.13
2022-08-25T07:32:02.406Z,28.51
2022-08-25T07:34:52.163Z,28.76
2022-08-25T07:37:47.978Z,28.97
2022-08-25T07:40:17.687Z,29.09
2022-08-25T07:42:46.774Z,29.23
2022-08-25T07:45:17.383Z,29.38
2022-08-25T07:47:51.692Z,29.63
2022-08-25T07:50:21.708Z,29.93
2022-08-25T07:52:55.491Z,30.21
2022-08-25T07:55:25.605Z,30.50
2022-08-25T07:57:57.062Z,30.75
2022-08-25T08:00:29.947Z,31.07
2022-08-25T08:02:59.571Z,31.42
2022-08-25T08:05:28.413Z,31.78
2022-08-25T08:07:58.827Z,32.05
2022-08-25T08:10:47.987Z,32.28
2022-08-25T08:13:18.627Z,32.59
2022-08-25T08:15:48.578Z,32.89
2022-08-25T08:18:18.474Z,33.12
2022-08-25T08:20:49.068Z,33.39
2022-08-25T08:23:19.001Z,33.52
2022-08-25T08:25:48.153Z,33.73
2022-08-25T08:28:16.804Z,34.03
2022-08-25T08:30:52.763Z,34.24
2022-08-25T08:33:24.837Z,34.32
2022-08-25T08:36:04.965Z,34.48
2022-08-25T08:38:36.355Z,34.68
2022-08-25T08:41:54.310Z,34.77
2022-08-25T08:44:32.810Z,35.05
2022-08-25T08:47:12.112Z,35.31
2022-08-25T08:49:51.040Z,35.66
2022-08-25T08:52:25.500Z,35.99
2022-08-25T08:55:07.349Z,36.26
2022-08-25T08:57:44.122Z,36.44
2022-08-25T09:00:13.889Z,36.52
2022-08-25T09:02:53.664Z,36.66
2022-08-25T09:05:28.241Z,36.78
2022-08-25T09:08:01.921Z,36.88
2022-08-25T09:10:54.704Z,36.98
2022-08-25T09:13:43.029Z,37.17
2022-08-25T09:16:40.784Z,37.34
2022-08-25T09:19:32.156Z,37.65
2022-08-25T09:22:35.995Z,37.92
2022-08-25T09:25:10.338Z,38.05
2022-08-25T09:27:51.599Z,38.01
2022-08-25T09:30:25.082Z,38.02
2022-08-25T09:33:03.962Z,38.17
2022-08-25T09:35:37.505Z,38.37
2022-08-25T09:38:11.203Z,38.42
2022-08-25T09:40:42.917Z,38.66
2022-08-25T09:43:23.674Z,38.81
2022-08-25T09:46:01.685Z,38.97
2022-08-25T09:48:39.791Z,38.93
2022-08-25T09:51:21.855Z,38.35
2022-08-25T09:53:55.919Z,37.63
2022-08-25T09:56:27.521Z,37.49
2022-08-25T09:59:18.274Z,37.85
2022-08-25T10:01:51.383Z,38.37
2022-08-25T10:04:28.105Z,38.63
2022-08-25T10:06:56.735Z,38.61
2022-08-25T10:09:33.075Z,38.17
2022-08-25T10:12:04.961Z,38.19
2022-08-25T10:14:44.258Z,38.46
2022-08-25T10:17:24.639Z,38.86
2022-08-25T10:20:15.246Z,39.23
2022-08-25T10:22:45.959Z,39.10
2022-08-25T10:25:21.184Z,38.47
2022-08-25T10:28:03.665Z,38.25
2022-08-25T10:30:52.156Z,38.45
2022-08-25T10:33:33.486Z,38.36
2022-08-25T10:36:15.057Z,37.84
2022-08-25T10:38:56.282Z,37.11
2022-08-25T10:41:44.958Z,36.33
2022-08-25T10:44:42.438Z,35.40
2022-08-25T10:47:50.183Z,34.75
2022-08-25T10:50:30.428Z,34.52
2022-08-25T10:53:47.317Z,34.29
2022-08-25T10:56:22.441Z,34.26
2022-08-25T10:59:28.321Z,34.23
2022-08-25T11:02:49.272Z,34.49
2022-08-25T11:05:28.069Z,35.02
2022-08-25T11:08:08.096Z,35.05
2022-08-25T11:10:45.624Z,35.26
2022-08-25T11:13:30.462Z,35.28
2022-08-25T11:16:23.692Z,35.53
2022-08-25T11:19:05.391Z,36.04
2022-08-25T11:21:46.893Z,36.59
2022-08-25T11:24:53.997Z,36.73
2022-08-25T11:27:29.321Z,36.84
2022-08-25T11:30:07.100Z,37.18
2022-08-25T11:32:36.995Z,37.11
2022-08-25T11:35:09.816Z,36.68
2022-08-25T11:37:59.024Z,36.49
2022-08-25T11:40:51.825Z,36.23
2022-08-25T11:43:56.721Z,35.88
2022-08-25T11:46:42.289Z,36.04
2022-08-25T11:49:48.477Z,36.06
2022-08-25T11:52:49.106Z,36.26
2022-08-25T11:55:24.065Z,36.83
2022-08-25T11:58:14.161Z,37.00
2022-08-25T12:00:46.024Z,36.85
2022-08-25T12:03:53.137Z,36.56
2022-08-25T12:06:27.941Z,36.29
2022-08-25T12:09:20.181Z,35.93
2022-08-25T12:11:55.027Z,35.82
2022-08-25T12:14:47.976Z,36.18
2022-08-25T12:17:25.343Z,36.37
2022-08-25T12:20:00.592Z,36.78
2022-08-25T12:23:00.039Z,36.92
2022-08-25T12:25:54.780Z,36.78
2022-08-25T12:28:58.931Z,36.20
2022-08-25T12:32:04.919Z,35.62
2022-08-25T12:34:54.212Z,35.31
2022-08-25T12:37:25.162Z,35.14
2022-08-25T12:40:01.403Z,35.10
2022-08-25T12:42:36.293Z,34.99
2022-08-25T12:45:31.123Z,34.97
2022-08-25T12:48:58.213Z,35.69
2022-08-25T12:51:29.909Z,36.89
2022-08-25T12:54:22.326Z,37.93
2022-08-25T12:56:57.304Z,38.23
2022-08-25T12:59:37.876Z,38.11
2022-08-25T13:02:36.631Z,37.87
2022-08-25T13:05:29.549Z,37.54
2022-08-25T13:08:42.178Z,37.57
2022-08-25T13:11:20.251Z,38.45
2022-08-25T13:13:57.512Z,39.27
2022-08-25T13:16:30.342Z,40.13
2022-08-25T13:19:04.811Z,40.75
2022-08-25T13:21:39.365Z,41.18
2022-08-25T13:24:15.660Z,41.56
2022-08-25T13:26:48.450Z,41.99
2022-08-25T13:29:22.505Z,42.34
2022-08-25T13:31:58.713Z,42.62
2022-08-25T13:34:34.956Z,42.96
2022-08-25T13:37:22.439Z,43.11
2022-08-25T13:39:56.582Z,43.35
2022-08-25T13:42:29.112Z,42.96
2022-08-25T13:44:57.991Z,42.92
2022-08-25T13:47:45.169Z,43.27
2022-08-25T13:50:32.001Z,43.30
2022-08-25T13:53:04.985Z,42.81
2022-08-25T13:55:51.399Z,42.67
2022-08-25T13:58:32.474Z,42.51
2022-08-25T14:01:23.009Z,42.64
2022-08-25T14:04:29.501Z,43.19
2022-08-25T14:07:19.583Z,43.70
2022-08-25T14:09:52.810Z,43.68
2022-08-25T14:12:39.499Z,42.94
2022-08-25T14:15:27.067Z,41.95
2022-08-25T14:18:05.549Z,40.92
2022-08-25T14:20:38.905Z,40.97
2022-08-25T14:23:16.250Z,41.50
2022-08-25T14:25:47.785Z,42.12
2022-08-25T14:28:19.466Z,42.54
2022-08-25T14:30:52.147Z,42.71
2022-08-25T14:33:23.790Z,43.05
2022-08-25T14:35:59.023Z,43.08
2022-08-25T14:38:27.629Z,42.90
2022-08-25T14:40:59.248Z,43.24
2022-08-25T14:43:31.786Z,43.52
2022-08-25T14:46:15.536Z,43.16
2022-08-25T14:48:47.058Z,42.81
2022-08-25T14:51:19.452Z,43.07
2022-08-25T14:53:49.121Z,43.43
2022-08-25T14:56:17.680Z,43.63
2022-08-25T14:58:50.856Z,43.55
2022-08-25T15:01:29.283Z,43.51
2022-08-25T15:04:04.673Z,43.76
2022-08-25T15:06:36.193Z,43.90
2022-08-25T15:09:13.790Z,43.79
2022-08-25T15:11:45.581Z,43.83
2022-08-25T15:14:17.411Z,43.88
2022-08-25T15:16:50.148Z,43.74
2022-08-25T15:19:23.477Z,43.59
2022-08-25T15:21:54.371Z,43.62
2022-08-25T15:24:27.695Z,43.64
2022-08-25T15:26:58.886Z,43.52
2022-08-25T15:29:30.325Z,43.40
2022-08-25T15:32:00.546Z,43.34
2022-08-25T15:34:29.176Z,43.25
2022-08-25T15:37:00.928Z,43.02
2022-08-25T15:39:31.383Z,43.04
2022-08-25T15:41:59.750Z,43.01
2022-08-25T15:44:29.681Z,42.84
2022-08-25T15:46:59.194Z,42.71
2022-08-25T15:49:31.278Z,42.63
2022-08-25T15:52:01.616Z,42.41
2022-08-25T15:54:30.993Z,42.50
2022-08-25T15:57:00.051Z,42.42
2022-08-25T15:59:30.148Z,42.48
2022-08-25T16:01:59.369Z,42.53
2022-08-25T16:04:29.690Z,42.53
2022-08-25T16:07:00.891Z,42.53
2022-08-25T16:09:31.276Z,42.58
2022-08-25T16:12:04.034Z,42.45
2022-08-25T16:14:35.339Z,42.17
2022-08-25T16:17:04.323Z,42.21
2022-08-25T16:19:33.588Z,42.25
2022-08-25T16:22:08.814Z,42.23
2022-08-25T16:24:42.054Z,42.28
2022-08-25T16:27:12.037Z,42.37
2022-08-25T16:29:43.752Z,42.36
2022-08-25T16:32:14.977Z,42.19
2022-08-25T16:34:44.852Z,42.06
2022-08-25T16:37:14.720Z,41.90
2022-08-25T16:39:45.636Z,41.73
2022-08-25T16:42:15.006Z,41.55
2022-08-25T16:44:43.338Z,41.39
2022-08-25T16:47:14.149Z,41.35
2022-08-25T16:49:43.865Z,41.32
2022-08-25T16:52:31.532Z,41.32
2022-08-25T16:55:16.468Z,41.36
2022-08-25T16:57:48.025Z,41.18
2022-08-25T17:00:21.921Z,41.12
2022-08-25T17:02:54.229Z,41.02
2022-08-25T17:05:22.854Z,40.91
2022-08-25T17:08:07.276Z,40.75
2022-08-25T17:10:38.553Z,40.51
2022-08-25T17:13:07.983Z,40.32
2022-08-25T17:15:40.933Z,39.91
2022-08-25T17:18:11.158Z,39.70
2022-08-25T17:20:40.325Z,39.50
2022-08-25T17:23:12.390Z,39.35
2022-08-25T17:25:43.550Z,39.19
2022-08-25T17:28:13.037Z,38.93
2022-08-25T17:30:43.476Z,38.74
2022-08-25T17:33:12.447Z,38.47
2022-08-25T17:35:41.891Z,38.14
2022-08-25T17:38:12.871Z,37.78
2022-08-25T17:40:41.475Z,37.37
2022-08-25T17:43:10.940Z,36.96
2022-08-25T17:45:40.368Z,36.56
2022-08-25T17:48:10.195Z,36.25
2022-08-25T17:50:39.379Z,36.02
2022-08-25T17:53:09.342Z,35.77
2022-08-25T17:55:42.305Z,35.49
2022-08-25T17:58:16.013Z,35.21
2022-08-25T18:00:47.074Z,34.95
2022-08-25T18:03:15.745Z,34.70
2022-08-25T18:05:47.341Z,34.41
2022-08-25T18:08:18.790Z,34.09
2022-08-25T18:10:51.909Z,33.76
2022-08-25T18:13:23.337Z,33.45
2022-08-25T18:15:51.757Z,33.18
2022-08-25T18:18:29.586Z,32.91
2022-08-25T18:20:58.004Z,32.67
2022-08-25T18:23:28.760Z,32.44
2022-08-25T18:26:00.783Z,32.21
2022-08-25T18:28:29.963Z,32.00
2022-08-25T18:30:58.867Z,31.80
2022-08-25T18:33:29.959Z,31.62
2022-08-25T18:35:59.252Z,31.47
2022-08-25T18:38:45.628Z,31.29
2022-08-25T18:41:15.830Z,31.10
2022-08-25T18:43:44.465Z,30.95
2022-08-25T18:46:13.064Z,30.81
2022-08-25T18:48:41.553Z,30.66
2022-08-25T18:51:10.616Z,30.53
2022-08-25T18:53:50.099Z,30.37
2022-08-25T18:56:21.940Z,30.24
2022-08-25T18:58:50.371Z,30.12
2022-08-25T19:01:20.649Z,30.03
2022-08-25T19:03:50.311Z,29.95
2022-08-25T19:06:19.499Z,29.84
2022-08-25T19:08:49.692Z,29.74
2022-08-25T19:11:22.397Z,29.64
2022-08-25T19:13:52.065Z,29.53
2022-08-25T19:16:32.861Z,29.41
2022-08-25T19:19:03.644Z,29.33
2022-08-25T19:21:32.399Z,29.25
2022-08-25T19:24:01.375Z,29.15
2022-08-25T19:26:35.289Z,29.07
2022-08-25T19:29:04.314Z,28.95
2022-08-25T19:31:33.468Z,28.86
2022-08-25T19:34:03.564Z,28.74
2022-08-25T19:36:32.178Z,28.65
2022-08-25T19:39:03.729Z,28.55
2022-08-25T19:41:34.424Z,28.46
2022-08-25T19:44:03.566Z,28.38
2022-08-25T19:46:36.114Z,28.32
2022-08-25T19:49:12.736Z,28.23
2022-08-25T19:51:45.671Z,28.19
2022-08-25T19:54:16.422Z,28.13
2022-08-25T19:56:54.320Z,28.08
2022-08-25T19:59:34.316Z,28.04
2022-08-25T20:02:15.367Z,28.00
2022-08-25T20:04:50.003Z,27.94
2022-08-25T20:07:21.143Z,27.89
2022-08-25T20:09:49.777Z,27.86
2022-08-25T20:12:21.180Z,27.83
2022-08-25T20:14:51.419Z,27.80
2022-08-25T20:17:24.839Z,27.75
2022-08-25T20:20:00.257Z,27.71
2022-08-25T20:22:32.273Z,27.67
2022-08-25T20:25:13.033Z,27.63
2022-08-25T20:27:47.600Z,27.57
2022-08-25T20:30:22.063Z,27.53
2022-08-25T20:32:50.977Z,27.44
2022-08-25T20:35:26.783Z,27.42
2022-08-25T20:37:56.762Z,27.38
2022-08-25T20:40:27.864Z,27.33
2022-08-25T20:43:01.966Z,27.30
2022-08-25T20:45:31.882Z,27.25
2022-08-25T20:48:00.518Z,27.20
2022-08-25T20:50:29.032Z,27.15
2022-08-25T20:52:58.736Z,27.09
2022-08-25T20:55:28.896Z,27.02
2022-08-25T20:57:58.924Z,26.97
2022-08-25T21:00:27.463Z,26.92
2022-08-25T21:02:56.655Z,26.86
2022-08-25T21:05:25.212Z,26.80
2022-08-25T21:07:53.689Z,26.74
2022-08-25T21:10:22.260Z,26.68
2022-08-25T21:12:53.248Z,26.62
2022-08-25T21:15:23.564Z,26.58
2022-08-25T21:17:54.337Z,26.52
2022-08-25T21:20:24.735Z,26.48
2022-08-25T21:22:54.435Z,26.41
2022-08-25T21:25:23.860Z,26.33
2022-08-25T21:27:52.486Z,26.26
2022-08-25T21:30:22.415Z,26.21
2022-08-25T21:32:53.766Z,26.14
2022-08-25T21:35:23.808Z,26.10
2022-08-25T21:37:54.776Z,26.06
2022-08-25T21:40:24.570Z,26.03
2022-08-25T21:42:53.597Z,25.99
2022-08-25T21:45:23.366Z,25.94
2022-08-25T21:47:52.489Z,25.90
2022-08-25T21:50:21.697Z,25.84
2022-08-25T21:52:54.298Z,25.78
2022-08-25T21:55:23.641Z,25.76
2022-08-25T21:57:52.585Z,25.73
2022-08-25T22:00:23.471Z,25.71
2022-08-25T22:02:52.869Z,25.68
2022-08-25T22:05:21.391Z,25.65
2022-08-25T22:07:50.445Z,25.62
2022-08-25T22:10:21.102Z,25.59
2022-08-25T22:12:51.108Z,25.55
2022-08-25T22:15:19.885Z,25.51
2022-08-25T22:17:49.648Z,25.49
2022-08-25T22:20:19.619Z,25.45
2022-08-25T22:22:48.626Z,25.42
2022-08-25T22:25:17.215Z,25.38
2022-08-25T22:27:45.604Z,25.32
2022-08-25T22:30:15.538Z,25.27
2022-08-25T22:32:45.596Z,25.24
2022-08-25T22:35:15.617Z,25.19
2022-08-25T22:37:47.597Z,25.14
2022-08-25T22:40:16.217Z,25.10
2022-08-25T22:42:48.059Z,25.04
2022-08-25T22:45:17.150Z,25.00
2022-08-25T22:47:45.845Z,24.96
2022-08-25T22:50:17.306Z,24.94
2022-08-25T22:52:46.876Z,24.91
2022-08-25T22:55:16.656Z,24.87
2022-08-25T22:57:45.399Z,24.83
2022-08-25T23:00:16.820Z,24.81
2022-08-25T23:02:46.652Z,24.78
2022-08-25T23:05:17.517Z,24.75
2022-08-25T23:07:45.941Z,24.73
2022-08-25T23:10:15.261Z,24.68
2022-08-25T23:12:44.191Z,24.64
2022-08-25T23:15:14.153Z,24.59
2022-08-25T23:17:42.971Z,24.53
2022-08-25T23:20:26.244Z,24.49
2022-08-25T23:22:56.212Z,24.45
2022-08-25T23:25:25.080Z,24.41
2022-08-25T23:27:53.475Z,24.37
2022-08-25T23:30:22.108Z,24.35
2022-08-25T23:32:50.754Z,24.33
2022-08-25T23:35:19.508Z,24.31
2022-08-25T23:37:48.490Z,24.27
2022-08-25T23:40:20.631Z,24.24
2022-08-25T23:42:50.884Z,24.19
2022-08-25T23:45:19.433Z,24.15
2022-08-25T23:47:47.846Z,24.11
2022-08-25T23:50:18.366Z,24.05
2022-08-25T23:52:47.737Z,23.99
2022-08-25T23:55:16.181Z,23.94
2022-08-25T23:57:51.405Z,23.91
